Domov               UVHVVR             MKGP            O straneh              
ZDRAVSTVENO VARSTVO RASTLIN
  MREŽA AGROMET. POSTAJ
 ► PROGNOSTIČNA OBVESTILA
AGROMETEOROLOŠKI PODATKI -
ARSO
OBVLADOVANJE TVEGANJ ZARADI
NEUGODNIH VREMENSKIH RAZMER
  ► NARAVNE NESREČE
  ► SUŠA/MOČA
  ► NAMAKANJE
  ► ŽLED (gozdarstvo)
KARTOGRAFSKI PRIKAZI
SPLETNE POVEZAVE
PROJEKTI IN PUBLIKACIJE

AGROMETEOROLOŠKA MREŽA: VREMENSKE POSTAJE IN FENOLOŠKA OPAZOVANJA

Pregled podatkov za lokacijo Podbrezje, meteorološka postaja 855704

Pregled senzorjev na lokaciji

ID Ime Zadnja
vrednost
Datum
zadnje
spremembe
Tip
senzorja
4021 Temperatura 2 m ( °C) 10,47 °C 17.10.2017 23:30 50YA
4022 Relativna vlaga 2 m (% RH) 95,62 % RH 17.10.2017 23:30 50YA
4023 Omočenost lista (U) 10 U 17.10.2017 23:30 A730WET
4024 Padavine 0.2 mm (mm) 0 mm 17.10.2017 23:30 Rain-O-Matic

Pregled podatkov zadnjih 24 ur

Zap.
št.
Datum in čas Podbrezje
Omočenost
lista
Padavine
0.2
mm
Relativna
vlaga
2
m
Temperatura
2
m
0 17.10.2017 22:30 10 0 95,62 10,47
1 17.10.2017 22:00 10 0 95,2 10,8
2 17.10.2017 21:30 10 0 94,82 11,07
3 17.10.2017 21:00 10 0 94,34 11,44
4 17.10.2017 20:30 10 0 92,89 11,93
5 17.10.2017 20:00 10 0 90,88 12,4
6 17.10.2017 19:30 4 0 89,06 12,91
7 17.10.2017 19:00 3 0 86,79 13,45
8 17.10.2017 18:30 1 0 84,76 14,16
9 17.10.2017 18:00 0 0 80,35 15,24
10 17.10.2017 17:30 0 0 73,63 16,71
11 17.10.2017 17:00 0 0 63,91 18,52
12 17.10.2017 16:30 0 0 59,22 19,41
13 17.10.2017 16:00 0 0 56,87 20,39
14 17.10.2017 15:30 0 0 56,05 21,33
15 17.10.2017 15:00 0 0 53,3 21,64
16 17.10.2017 14:30 0 0 49,41 22,18
17 17.10.2017 14:00 0 0 50,25 21,88
18 17.10.2017 13:30 0 0 52,66 21,01
19 17.10.2017 13:00 0 0 53,93 20,98
20 17.10.2017 12:30 0 0 55,82 20,23
21 17.10.2017 12:00 0 0 57,36 19,42
22 17.10.2017 11:30 0 0 61,06 18,27
23 17.10.2017 11:00 0 0 61,71 17,81
24 17.10.2017 10:30 0 0 58,34 17,06
25 17.10.2017 10:00 0 0 57,54 16,35
26 17.10.2017 09:30 0 0 59,47 15,73
27 17.10.2017 09:00 0 0 67,23 14,19
28 17.10.2017 08:30 4 0 75,53 12,06
29 17.10.2017 08:00 10 0 84,24 9,41
30 17.10.2017 07:30 10 0 90,56 7,25
31 17.10.2017 07:00 10 0 95,26 5,71
32 17.10.2017 06:30 10 0 95,5 5,49
33 17.10.2017 06:00 10 0 95,12 5,77
34 17.10.2017 05:30 10 0 94,63 5,79
35 17.10.2017 05:00 10 0 94,02 6,15
36 17.10.2017 04:30 10 0 93,65 6,28
37 17.10.2017 04:00 10 0 92,75 6,63
38 17.10.2017 03:30 10 0 93,75 6,62
39 17.10.2017 03:00 10 0 95,01 6,6
40 17.10.2017 02:30 10 0 94,3 6,84
41 17.10.2017 02:00 10 0 93,5 7,18
42 17.10.2017 01:30 10 0 93,01 7,41
43 17.10.2017 01:00 10 0 90,69 8,13
44 17.10.2017 00:30 10 0 89,86 8,51
© 2011 Ministrstvo za kmetijstvo, gozdarstvo in prehrano. Vse pravice pridržane.